createdAt,value
2022-08-14T00:01:15.269Z,44.68
2022-08-14T00:06:47.085Z,44.66
2022-08-14T00:12:23.710Z,44.47
2022-08-14T00:17:52.796Z,44.76
2022-08-14T00:23:17.981Z,45.59
2022-08-14T00:28:39.842Z,45.61
2022-08-14T00:34:36.142Z,45.78
2022-08-14T00:39:43.525Z,45.76
2022-08-14T00:45:08.286Z,46.76
2022-08-14T00:50:34.047Z,47.17
2022-08-14T00:55:59.895Z,47.56
2022-08-14T01:01:21.923Z,47.93
2022-08-14T01:06:44.142Z,48.23
2022-08-14T01:12:07.809Z,48.63
2022-08-14T01:17:57.803Z,49.17
2022-08-14T01:23:22.155Z,49.05
2022-08-14T01:28:54.169Z,48.56
2022-08-14T01:35:19.193Z,48.14
2022-08-14T01:40:02.966Z,48.38
2022-08-14T01:45:25.823Z,47.83
2022-08-14T01:50:47.618Z,47.93
2022-08-14T01:56:12.083Z,48.53
2022-08-14T02:01:58.540Z,48.25
2022-08-14T02:07:34.177Z,47.71
2022-08-14T02:13:08.973Z,48.30
2022-08-14T02:18:32.647Z,49.14
2022-08-14T02:23:57.182Z,49.15
2022-08-14T02:29:23.246Z,48.72
2022-08-14T02:34:45.479Z,48.50
2022-08-14T02:40:07.742Z,48.55
2022-08-14T02:45:38.023Z,48.14
2022-08-14T02:51:13.991Z,48.89
2022-08-14T02:57:14.249Z,49.68
2022-08-14T03:02:48.966Z,50.79
2022-08-14T03:08:15.355Z,51.05
2022-08-14T03:13:51.535Z,50.59
2022-08-14T03:19:14.022Z,50.82
2022-08-14T03:24:36.685Z,50.61
2022-08-14T03:30:05.417Z,50.75
2022-08-14T03:35:37.361Z,50.88
2022-08-14T03:41:02.169Z,50.69
2022-08-14T03:46:38.833Z,51.14
2022-08-14T03:52:37.668Z,51.47
2022-08-14T03:57:52.735Z,52.34
2022-08-14T04:03:19.763Z,53.22
2022-08-14T04:08:45.697Z,53.89
2022-08-14T04:14:08.170Z,54.02
2022-08-14T04:19:33.084Z,54.02
2022-08-14T04:25:02.194Z,54.11
2022-08-14T04:30:32.739Z,54.06
2022-08-14T04:35:57.150Z,53.55
2022-08-14T04:41:37.881Z,54.00
2022-08-14T04:47:23.908Z,54.50
2022-08-14T04:52:53.847Z,54.58
2022-08-14T04:58:21.931Z,55.14
2022-08-14T05:03:56.502Z,54.94
2022-08-14T05:09:18.493Z,54.76
2022-08-14T05:14:47.192Z,55.20
2022-08-14T05:21:55.432Z,54.80
2022-08-14T05:26:02.733Z,53.45
2022-08-14T05:31:24.501Z,53.82
2022-08-14T05:37:03.150Z,54.38
2022-08-14T05:42:26.983Z,53.59
2022-08-14T05:47:51.825Z,53.11
2022-08-14T05:53:13.754Z,54.04
2022-08-14T05:58:41.040Z,54.10
2022-08-14T06:04:04.445Z,53.96
2022-08-14T06:09:26.904Z,54.70
2022-08-14T06:14:48.682Z,55.13
2022-08-14T06:20:11.628Z,54.90
2022-08-14T06:25:34.271Z,55.14
2022-08-14T06:30:57.692Z,53.82
2022-08-14T06:36:19.948Z,53.11
2022-08-14T06:41:57.170Z,52.12
2022-08-14T06:47:21.575Z,51.85
2022-08-14T06:52:50.138Z,51.57
2022-08-14T06:58:28.734Z,52.67
2022-08-14T07:04:22.544Z,51.92
2022-08-14T07:09:50.907Z,51.30
2022-08-14T07:15:13.061Z,50.45
2022-08-14T07:20:35.746Z,50.15
2022-08-14T07:25:59.206Z,50.85
2022-08-14T07:31:21.014Z,49.63
2022-08-14T07:36:58.150Z,49.94
2022-08-14T07:42:23.282Z,46.15
2022-08-14T07:47:45.688Z,44.12
2022-08-14T07:53:08.638Z,42.80
2022-08-14T07:58:34.428Z,44.01
2022-08-14T08:04:03.518Z,44.83
2022-08-14T08:09:31.840Z,43.50
2022-08-14T08:15:05.591Z,43.37
2022-08-14T08:20:29.427Z,42.66
2022-08-14T08:25:51.598Z,43.31
2022-08-14T08:31:13.430Z,43.26
2022-08-14T08:36:42.013Z,42.90
2022-08-14T08:42:08.382Z,42.58
2022-08-14T08:47:40.937Z,43.03
2022-08-14T08:53:08.331Z,42.83
2022-08-14T08:58:31.108Z,42.08
2022-08-14T09:04:01.830Z,41.32
2022-08-14T09:09:33.109Z,39.99
2022-08-14T09:14:56.590Z,38.65
2022-08-14T09:20:29.407Z,38.38
2022-08-14T09:26:01.280Z,38.33
2022-08-14T09:31:24.575Z,37.09
2022-08-14T09:37:07.893Z,36.71
2022-08-14T09:42:49.801Z,37.25
2022-08-14T09:48:17.573Z,36.39
2022-08-14T09:54:18.204Z,36.82
2022-08-14T09:59:43.436Z,36.51
2022-08-14T10:05:09.930Z,36.61
2022-08-14T10:10:39.156Z,36.28
2022-08-14T10:16:01.316Z,35.58
2022-08-14T10:21:24.145Z,35.33
2022-08-14T10:26:57.504Z,34.69
2022-08-14T10:32:36.356Z,35.07
2022-08-14T10:38:03.929Z,34.89
2022-08-14T10:43:31.576Z,34.08
2022-08-14T10:49:04.972Z,33.53
2022-08-14T10:54:39.997Z,33.58
2022-08-14T11:00:13.970Z,32.95
2022-08-14T11:05:45.165Z,32.82
2022-08-14T11:11:08.155Z,32.54
2022-08-14T11:16:31.203Z,32.77
2022-08-14T11:21:56.070Z,32.16
2022-08-14T11:27:20.182Z,31.77
2022-08-14T11:32:45.995Z,31.54
2022-08-14T11:38:12.470Z,31.58
2022-08-14T11:43:56.183Z,30.81
2022-08-14T11:49:35.049Z,30.96
2022-08-14T11:54:58.419Z,30.87
2022-08-14T12:00:21.685Z,30.25
2022-08-14T12:06:05.339Z,29.86
2022-08-14T12:11:43.328Z,29.66
2022-08-14T12:17:12.166Z,29.00
2022-08-14T12:22:44.318Z,28.88
2022-08-14T12:28:27.339Z,29.41
2022-08-14T12:34:00.016Z,28.96
2022-08-14T12:39:25.696Z,29.25
2022-08-14T12:44:48.696Z,28.24
2022-08-14T12:50:10.952Z,27.07
2022-08-14T12:56:17.507Z,26.99
2022-08-14T13:01:27.279Z,26.40
2022-08-14T13:06:50.925Z,26.40
2022-08-14T13:12:31.292Z,26.62
2022-08-14T13:18:01.764Z,26.10
2022-08-14T13:23:31.861Z,25.33
2022-08-14T13:29:02.669Z,26.03
2022-08-14T13:34:27.694Z,26.57
2022-08-14T13:39:53.710Z,26.60
2022-08-14T13:45:22.084Z,26.45
2022-08-14T13:50:48.585Z,26.65
2022-08-14T13:56:14.832Z,25.43
2022-08-14T14:01:51.704Z,24.24
2022-08-14T14:07:15.980Z,23.42
2022-08-14T14:12:41.389Z,23.25
2022-08-14T14:18:03.548Z,23.60
2022-08-14T14:23:26.888Z,23.51
2022-08-14T14:28:50.652Z,23.04
2022-08-14T14:34:29.065Z,23.57
2022-08-14T14:40:54.149Z,23.25
2022-08-14T14:45:37.257Z,23.26
2022-08-14T14:51:01.456Z,23.41
2022-08-14T14:56:49.749Z,23.90
2022-08-14T15:02:09.551Z,24.29
2022-08-14T15:07:32.367Z,24.64
2022-08-14T15:12:56.079Z,24.90
2022-08-14T15:18:37.395Z,24.23
2022-08-14T15:24:01.999Z,24.59
2022-08-14T15:29:27.536Z,23.89
2022-08-14T15:34:52.622Z,23.90
2022-08-14T15:40:22.169Z,23.82
2022-08-14T15:45:44.428Z,23.68
2022-08-14T15:51:06.351Z,24.55
2022-08-14T15:56:42.261Z,24.87
2022-08-14T16:02:05.220Z,25.74
2022-08-14T16:07:30.791Z,25.22
2022-08-14T16:12:53.011Z,25.37
2022-08-14T16:18:18.446Z,24.96
2022-08-14T16:23:44.185Z,25.22
2022-08-14T16:29:08.903Z,24.61
2022-08-14T16:34:43.968Z,24.84
2022-08-14T16:40:10.938Z,24.66
2022-08-14T16:45:33.628Z,25.07
2022-08-14T16:50:55.592Z,24.22
2022-08-14T16:56:24.168Z,25.13
2022-08-14T17:02:01.226Z,25.32
2022-08-14T17:07:26.861Z,24.50
2022-08-14T17:12:48.689Z,24.33
2022-08-14T17:18:14.964Z,24.58
2022-08-14T17:23:44.589Z,25.31
2022-08-14T17:29:19.843Z,25.93
2022-08-14T17:34:53.304Z,26.46
2022-08-14T17:40:20.779Z,26.28
2022-08-14T17:45:45.386Z,27.60
2022-08-14T17:51:09.093Z,27.50
2022-08-14T17:56:34.479Z,27.86
2022-08-14T18:02:01.758Z,27.01
2022-08-14T18:07:59.484Z,26.81
2022-08-14T18:13:07.970Z,27.11
2022-08-14T18:18:32.701Z,26.97
2022-08-14T18:23:54.727Z,27.46
2022-08-14T18:29:17.912Z,27.10
2022-08-14T18:34:50.710Z,27.79
2022-08-14T18:40:15.807Z,27.85
2022-08-14T18:45:59.383Z,28.35
2022-08-14T18:51:45.415Z,28.95
2022-08-14T18:57:09.027Z,29.20
2022-08-14T19:02:43.665Z,29.20
2022-08-14T19:08:25.061Z,29.16
2022-08-14T19:13:49.016Z,29.66
2022-08-14T19:19:14.178Z,29.24
2022-08-14T19:24:43.902Z,29.63
2022-08-14T19:30:20.196Z,30.00
2022-08-14T19:35:55.488Z,30.26
2022-08-14T19:41:30.777Z,31.08
2022-08-14T19:47:02.783Z,32.00
2022-08-14T19:52:35.314Z,32.79
2022-08-14T19:58:01.207Z,33.17
2022-08-14T20:03:24.787Z,33.96
2022-08-14T20:10:59.187Z,34.14
2022-08-14T20:14:31.186Z,34.28
2022-08-14T20:19:53.355Z,34.82
2022-08-14T20:25:21.549Z,35.34
2022-08-14T20:30:44.103Z,35.67
2022-08-14T20:36:14.983Z,36.00
2022-08-14T20:41:51.069Z,36.67
2022-08-14T20:47:16.889Z,36.53
2022-08-14T20:52:40.914Z,36.80
2022-08-14T20:58:09.879Z,36.66
2022-08-14T21:03:57.376Z,36.44
2022-08-14T21:10:03.170Z,36.66
2022-08-14T21:15:11.414Z,37.50
2022-08-14T21:20:39.432Z,37.28
2022-08-14T21:26:03.571Z,37.29
2022-08-14T21:31:29.874Z,37.75
2022-08-14T21:36:54.358Z,38.04
2022-08-14T21:42:16.089Z,38.48
2022-08-14T21:47:40.138Z,38.71
2022-08-14T21:53:07.250Z,39.41
2022-08-14T21:58:52.921Z,39.29
2022-08-14T22:04:34.477Z,39.51
2022-08-14T22:09:55.017Z,39.64
2022-08-14T22:15:18.754Z,40.25
2022-08-14T22:20:41.653Z,40.18
2022-08-14T22:26:05.010Z,40.19
2022-08-14T22:31:34.984Z,40.29
2022-08-14T22:37:01.483Z,40.41
2022-08-14T22:42:23.445Z,40.67
2022-08-14T22:47:45.193Z,40.81
2022-08-14T22:53:09.228Z,41.51
2022-08-14T22:58:34.902Z,41.28
2022-08-14T23:03:57.056Z,41.55
2022-08-14T23:09:35.914Z,41.39
2022-08-14T23:15:00.170Z,41.58
2022-08-14T23:20:23.131Z,42.02
2022-08-14T23:25:59.512Z,42.02
2022-08-14T23:31:34.467Z,42.62
2022-08-14T23:36:58.020Z,43.74
2022-08-14T23:42:19.779Z,43.81
2022-08-14T23:47:52.048Z,43.53
2022-08-14T23:53:28.217Z,42.89
2022-08-14T23:59:03.835Z,42.99
